createdAt,value
2022-12-12T08:39:11.131Z,99.82
2022-12-12T08:40:15.667Z,100.00
2022-12-12T08:41:20.003Z,100.00
2022-12-12T08:42:22.449Z,100.00
2022-12-12T08:43:28.691Z,100.00
2022-12-12T08:44:33.155Z,100.00
2022-12-12T08:45:40.158Z,98.64
2022-12-12T08:46:44.013Z,100.00
2022-12-12T08:47:46.588Z,98.62
2022-12-12T08:48:50.101Z,99.59
2022-12-12T08:49:53.758Z,99.22
2022-12-12T08:50:57.341Z,96.52
2022-12-12T08:52:01.791Z,95.50
2022-12-12T08:53:05.216Z,95.84
2022-12-12T08:54:11.832Z,95.42
2022-12-12T08:55:15.237Z,93.84
2022-12-12T08:56:20.842Z,93.74
2022-12-12T08:57:26.079Z,92.86
2022-12-12T08:58:29.454Z,92.57
2022-12-12T08:59:32.931Z,93.30
2022-12-12T09:01:55.814Z,93.35
2022-12-12T09:02:58.360Z,90.95
2022-12-12T09:04:03.659Z,90.69
2022-12-12T09:05:08.729Z,90.33
2022-12-12T09:06:20.162Z,90.27
2022-12-12T09:07:23.780Z,91.26
2022-12-12T09:08:27.460Z,92.21
2022-12-12T09:09:31.841Z,94.41
2022-12-12T09:10:35.398Z,94.52
2022-12-12T09:11:39.824Z,94.70
2022-12-12T09:12:44.201Z,93.27
2022-12-12T09:13:48.125Z,93.18
2022-12-12T09:14:54.504Z,90.11
2022-12-12T09:16:00.533Z,90.11
2022-12-12T09:17:03.368Z,89.65
2022-12-12T09:18:08.688Z,87.96
2022-12-12T09:19:11.965Z,88.55
2022-12-12T09:20:19.857Z,89.17
2022-12-12T09:21:23.464Z,88.76
2022-12-12T09:22:27.224Z,87.66
2022-12-12T09:23:30.915Z,87.85
2022-12-12T09:24:33.426Z,87.80
2022-12-12T09:25:42.638Z,88.23
2022-12-12T09:26:45.155Z,88.74
2022-12-12T09:27:48.485Z,88.46
2022-12-12T09:28:52.908Z,88.89
2022-12-12T09:29:55.462Z,88.97
2022-12-12T09:31:00.777Z,90.12
2022-12-12T09:32:05.384Z,88.55
2022-12-12T09:33:08.952Z,88.76
2022-12-12T09:34:12.187Z,90.26
2022-12-12T09:35:15.742Z,90.21
2022-12-12T09:36:23.122Z,92.38
2022-12-12T09:37:28.192Z,91.60
2022-12-12T09:38:32.778Z,90.66
2022-12-12T09:39:38.405Z,90.79
2022-12-12T09:41:03.194Z,91.99
2022-12-12T09:43:31.830Z,90.89
2022-12-12T09:44:34.487Z,92.39
2022-12-12T09:45:39.861Z,93.03
2022-12-12T09:46:51.742Z,92.28
2022-12-12T09:47:59.835Z,92.57
2022-12-12T09:49:20.860Z,91.26
2022-12-12T09:50:27.367Z,93.87
2022-12-12T09:51:31.143Z,92.62
2022-12-12T09:52:37.707Z,93.01
2022-12-12T09:53:43.646Z,93.25
2022-12-12T09:54:48.673Z,92.38
2022-12-12T09:55:57.700Z,91.28
2022-12-12T09:57:25.609Z,92.06
2022-12-12T09:58:49.183Z,93.63
2022-12-12T10:00:02.391Z,94.57
2022-12-12T10:01:29.139Z,94.05
2022-12-12T10:02:47.484Z,93.59
2022-12-12T10:03:57.566Z,95.42
2022-12-12T10:05:19.325Z,95.31
2022-12-12T10:06:40.131Z,95.32
2022-12-12T10:09:28.471Z,93.03
2022-12-12T10:11:55.580Z,93.31
2022-12-12T10:13:01.681Z,93.85
2022-12-12T10:14:08.839Z,93.57
2022-12-12T10:15:23.154Z,93.17
2022-12-12T10:16:29.238Z,94.66
2022-12-12T10:17:44.883Z,94.04
2022-12-12T10:18:52.202Z,94.54
2022-12-12T10:20:02.080Z,95.24
2022-12-12T10:21:09.556Z,93.94
2022-12-12T10:22:24.215Z,95.23
2022-12-12T10:23:51.166Z,94.67
2022-12-12T10:24:58.376Z,93.44
2022-12-12T10:26:15.483Z,94.51
2022-12-12T10:27:20.348Z,93.78
2022-12-12T10:28:29.857Z,94.56
2022-12-12T10:29:39.627Z,93.63
2022-12-12T10:30:52.165Z,92.66
2022-12-12T10:31:59.410Z,93.45
2022-12-12T10:33:40.176Z,93.21
2022-12-12T10:34:56.411Z,94.24
2022-12-12T10:36:27.356Z,94.53
2022-12-12T10:37:57.507Z,95.27
2022-12-12T10:39:04.846Z,94.62
2022-12-12T10:40:18.802Z,95.41
2022-12-12T10:41:35.552Z,94.65
2022-12-12T10:42:51.860Z,94.34
2022-12-12T10:44:29.686Z,95.42
2022-12-12T10:45:54.885Z,95.18
2022-12-12T10:47:10.375Z,95.53
2022-12-12T10:48:14.134Z,96.50
2022-12-12T10:49:21.841Z,94.95
2022-12-12T10:50:40.417Z,95.70
2022-12-12T10:51:46.820Z,96.02
2022-12-12T10:52:50.449Z,96.52
2022-12-12T10:53:54.060Z,96.63
2022-12-12T10:55:01.470Z,96.54
2022-12-12T10:56:11.942Z,96.26
2022-12-12T10:57:29.598Z,96.33
2022-12-12T10:58:42.798Z,96.26
2022-12-12T10:59:49.894Z,96.77
2022-12-12T11:01:02.033Z,96.60
2022-12-12T11:02:11.034Z,96.70
2022-12-12T11:03:30.472Z,96.34
2022-12-12T11:04:34.142Z,96.54
2022-12-12T11:05:40.444Z,96.13
2022-12-12T11:06:49.271Z,97.36
2022-12-12T11:08:03.237Z,97.57
2022-12-12T11:09:24.942Z,97.96
2022-12-12T11:10:34.612Z,97.91
2022-12-12T11:11:38.619Z,99.15
2022-12-12T11:12:42.038Z,97.10
2022-12-12T11:15:08.766Z,97.37
2022-12-12T11:16:19.212Z,97.54
2022-12-12T11:17:29.878Z,96.97
2022-12-12T11:18:33.556Z,96.42
2022-12-12T11:19:39.489Z,97.66
2022-12-12T11:20:48.313Z,97.24
2022-12-12T11:21:55.806Z,96.16
2022-12-12T11:22:59.513Z,93.94
2022-12-12T11:25:23.510Z,95.46
2022-12-12T11:26:29.961Z,95.81
2022-12-12T11:27:36.139Z,95.72
2022-12-12T11:28:44.770Z,96.58
2022-12-12T11:30:00.945Z,96.43
2022-12-12T11:31:09.501Z,96.15
2022-12-12T11:32:25.230Z,95.51
2022-12-12T11:33:35.715Z,96.64
2022-12-12T11:34:43.326Z,97.56
2022-12-12T11:35:47.956Z,96.68
2022-12-12T11:36:52.024Z,94.93
2022-12-12T11:38:00.756Z,94.17
2022-12-12T11:40:31.579Z,95.58
2022-12-12T11:41:40.000Z,96.43
2022-12-12T11:42:43.384Z,96.82
2022-12-12T11:43:58.855Z,95.99
2022-12-12T11:45:09.218Z,96.24
2022-12-12T11:46:17.800Z,95.39
2022-12-12T11:47:35.104Z,95.08
2022-12-12T11:48:54.762Z,95.72
2022-12-12T11:50:07.683Z,96.29
2022-12-12T11:51:13.806Z,97.21
2022-12-12T11:52:21.155Z,97.96
2022-12-12T11:53:29.011Z,98.65
2022-12-12T11:54:31.915Z,100.00
2022-12-12T11:55:42.015Z,100.00
2022-12-12T11:57:15.719Z,100.00
2022-12-12T11:58:25.685Z,99.82
2022-12-12T12:00:55.102Z,99.69
2022-12-12T12:02:01.474Z,99.34
2022-12-12T12:03:27.193Z,98.91
2022-12-12T12:04:58.726Z,97.35
2022-12-12T12:06:10.866Z,96.65
2022-12-12T12:07:24.074Z,96.25
2022-12-12T12:08:48.971Z,96.72
2022-12-12T12:09:58.182Z,96.82
2022-12-12T12:11:08.269Z,97.15
2022-12-12T12:12:24.611Z,97.15
2022-12-12T12:13:41.454Z,97.96
2022-12-12T12:15:22.114Z,98.63
2022-12-12T12:16:46.474Z,98.94
2022-12-12T12:17:59.505Z,98.40
2022-12-12T12:19:11.445Z,98.65
2022-12-12T12:20:31.594Z,98.46
2022-12-12T12:22:03.156Z,99.09
2022-12-12T12:23:21.381Z,98.74
2022-12-12T12:24:52.929Z,98.93
2022-12-12T12:26:09.863Z,98.83
2022-12-12T12:27:24.344Z,99.18
2022-12-12T12:28:57.192Z,100.00
2022-12-12T12:30:16.629Z,100.00
2022-12-12T12:31:49.959Z,100.00
2022-12-12T12:33:05.348Z,100.00
2022-12-12T12:34:24.381Z,99.43
2022-12-12T12:35:34.179Z,99.08
2022-12-12T12:36:56.945Z,98.42
2022-12-12T12:38:28.123Z,98.45
2022-12-12T12:39:41.596Z,98.77
2022-12-12T12:41:19.104Z,99.51
2022-12-12T12:42:51.663Z,99.93
2022-12-12T12:44:05.229Z,99.86
2022-12-12T12:45:21.430Z,99.79
2022-12-12T12:46:31.641Z,98.83
2022-12-12T12:47:57.097Z,98.82
2022-12-12T12:50:28.291Z,100.00
2022-12-12T12:51:45.564Z,100.00
2022-12-12T12:53:00.133Z,100.00
2022-12-12T12:54:10.145Z,100.00
2022-12-12T12:55:17.402Z,100.00
2022-12-12T12:56:28.121Z,100.00
2022-12-12T12:57:35.547Z,99.32
2022-12-12T12:58:41.782Z,99.99
2022-12-12T12:59:49.304Z,100.00
2022-12-12T13:01:11.848Z,100.00
2022-12-12T13:02:31.335Z,100.00
2022-12-12T13:03:40.404Z,100.00
2022-12-12T13:06:08.381Z,100.00
2022-12-12T13:07:21.431Z,100.00
2022-12-12T13:08:47.061Z,100.00
2022-12-12T13:10:11.320Z,100.00
2022-12-12T13:11:29.271Z,100.00
2022-12-12T13:12:48.500Z,100.00
2022-12-12T13:13:54.898Z,100.00
2022-12-12T13:15:27.308Z,100.00
2022-12-12T13:16:34.294Z,100.00
